sensor_id;sensor_type;location;lat;lon;timestamp;P1;durP1;ratioP1;P2;durP2;ratioP2
74974;SDS011;68459;50.836;19.138;2023-05-07T00:02:07;1.83;;;1.02;;
74974;SDS011;68459;50.836;19.138;2023-05-07T00:05:11;2.20;;;1.13;;
74974;SDS011;68459;50.836;19.138;2023-05-07T00:08:16;3.70;;;1.17;;
74974;SDS011;68459;50.836;19.138;2023-05-07T00:11:20;2.25;;;1.27;;
74974;SDS011;68459;50.836;19.138;2023-05-07T00:14:24;2.57;;;1.10;;
74974;SDS011;68459;50.836;19.138;2023-05-07T00:17:28;2.20;;;1.10;;
74974;SDS011;68459;50.836;19.138;2023-05-07T00:20:34;2.75;;;1.35;;
74974;SDS011;68459;50.836;19.138;2023-05-07T00:23:37;3.30;;;1.20;;
74974;SDS011;68459;50.836;19.138;2023-05-07T00:26:41;1.90;;;1.10;;
74974;SDS011;68459;50.836;19.138;2023-05-07T00:29:45;1.48;;;0.80;;
74974;SDS011;68459;50.836;19.138;2023-05-07T00:32:48;2.75;;;1.35;;
74974;SDS011;68459;50.836;19.138;2023-05-07T00:35:53;2.60;;;1.25;;
74974;SDS011;68459;50.836;19.138;2023-05-07T00:38:58;2.80;;;1.40;;
74974;SDS011;68459;50.836;19.138;2023-05-07T00:42:05;2.40;;;1.15;;
74974;SDS011;68459;50.836;19.138;2023-05-07T00:45:10;1.90;;;0.90;;
74974;SDS011;68459;50.836;19.138;2023-05-07T00:48:13;2.42;;;1.27;;
74974;SDS011;68459;50.836;19.138;2023-05-07T00:51:20;2.25;;;1.20;;
74974;SDS011;68459;50.836;19.138;2023-05-07T00:54:24;2.43;;;1.23;;
74974;SDS011;68459;50.836;19.138;2023-05-07T00:57:28;1.90;;;1.10;;
74974;SDS011;68459;50.836;19.138;2023-05-07T01:00:31;2.80;;;0.90;;
74974;SDS011;68459;50.836;19.138;2023-05-07T01:03:35;1.70;;;0.90;;
74974;SDS011;68459;50.836;19.138;2023-05-07T01:06:41;2.38;;;1.00;;
74974;SDS011;68459;50.836;19.138;2023-05-07T01:09:47;1.83;;;0.90;;
74974;SDS011;68459;50.836;19.138;2023-05-07T01:12:51;1.95;;;1.13;;
74974;SDS011;68459;50.836;19.138;2023-05-07T01:15:57;2.17;;;1.00;;
74974;SDS011;68459;50.836;19.138;2023-05-07T01:19:01;4.15;;;1.10;;
74974;SDS011;68459;50.836;19.138;2023-05-07T01:22:09;2.75;;;1.10;;
74974;SDS011;68459;50.836;19.138;2023-05-07T01:25:23;2.63;;;1.03;;
74974;SDS011;68459;50.836;19.138;2023-05-07T01:28:31;2.88;;;1.27;;
74974;SDS011;68459;50.836;19.138;2023-05-07T01:31:35;2.72;;;1.23;;
74974;SDS011;68459;50.836;19.138;2023-05-07T01:34:42;1.55;;;0.90;;
74974;SDS011;68459;50.836;19.138;2023-05-07T01:37:51;3.55;;;1.20;;
74974;SDS011;68459;50.836;19.138;2023-05-07T01:40:57;3.58;;;1.10;;
74974;SDS011;68459;50.836;19.138;2023-05-07T01:44:01;2.33;;;0.90;;
74974;SDS011;68459;50.836;19.138;2023-05-07T01:47:07;1.80;;;0.90;;
74974;SDS011;68459;50.836;19.138;2023-05-07T01:50:12;1.45;;;0.80;;
74974;SDS011;68459;50.836;19.138;2023-05-07T01:53:19;1.88;;;1.02;;
74974;SDS011;68459;50.836;19.138;2023-05-07T01:56:25;1.60;;;0.87;;
74974;SDS011;68459;50.836;19.138;2023-05-07T01:59:29;3.60;;;1.00;;
74974;SDS011;68459;50.836;19.138;2023-05-07T02:02:32;3.47;;;1.05;;
74974;SDS011;68459;50.836;19.138;2023-05-07T02:05:36;2.60;;;0.85;;
74974;SDS011;68459;50.836;19.138;2023-05-07T02:08:47;1.52;;;1.00;;
74974;SDS011;68459;50.836;19.138;2023-05-07T02:11:53;2.40;;;1.00;;
74974;SDS011;68459;50.836;19.138;2023-05-07T02:14:58;2.30;;;1.15;;
74974;SDS011;68459;50.836;19.138;2023-05-07T02:18:03;1.87;;;1.10;;
74974;SDS011;68459;50.836;19.138;2023-05-07T02:21:09;1.97;;;0.80;;
74974;SDS011;68459;50.836;19.138;2023-05-07T02:24:12;1.92;;;0.63;;
74974;SDS011;68459;50.836;19.138;2023-05-07T02:27:18;2.33;;;1.17;;
74974;SDS011;68459;50.836;19.138;2023-05-07T02:30:22;2.00;;;0.80;;
74974;SDS011;68459;50.836;19.138;2023-05-07T02:33:29;1.73;;;0.93;;
74974;SDS011;68459;50.836;19.138;2023-05-07T02:36:33;2.17;;;1.17;;
74974;SDS011;68459;50.836;19.138;2023-05-07T02:39:42;2.72;;;1.08;;
74974;SDS011;68459;50.836;19.138;2023-05-07T02:42:48;1.65;;;0.80;;
74974;SDS011;68459;50.836;19.138;2023-05-07T02:45:59;1.63;;;0.70;;
74974;SDS011;68459;50.836;19.138;2023-05-07T02:49:05;1.93;;;1.00;;
74974;SDS011;68459;50.836;19.138;2023-05-07T02:52:09;1.70;;;1.00;;
74974;SDS011;68459;50.836;19.138;2023-05-07T02:55:12;1.42;;;0.60;;
74974;SDS011;68459;50.836;19.138;2023-05-07T02:58:18;2.13;;;1.17;;
74974;SDS011;68459;50.836;19.138;2023-05-07T03:01:22;2.25;;;1.08;;
74974;SDS011;68459;50.836;19.138;2023-05-07T03:04:33;2.00;;;0.88;;
74974;SDS011;68459;50.836;19.138;2023-05-07T03:07:36;2.03;;;0.80;;
74974;SDS011;68459;50.836;19.138;2023-05-07T03:10:41;1.35;;;0.55;;
74974;SDS011;68459;50.836;19.138;2023-05-07T03:13:46;1.50;;;0.80;;
74974;SDS011;68459;50.836;19.138;2023-05-07T03:16:53;1.42;;;0.73;;
74974;SDS011;68459;50.836;19.138;2023-05-07T03:19:56;1.17;;;0.60;;
74974;SDS011;68459;50.836;19.138;2023-05-07T03:23:00;3.55;;;1.50;;
74974;SDS011;68459;50.836;19.138;2023-05-07T03:26:04;1.77;;;0.57;;
74974;SDS011;68459;50.836;19.138;2023-05-07T03:29:09;1.70;;;0.80;;
74974;SDS011;68459;50.836;19.138;2023-05-07T03:32:13;1.38;;;0.70;;
74974;SDS011;68459;50.836;19.138;2023-05-07T03:35:17;1.38;;;0.68;;
74974;SDS011;68459;50.836;19.138;2023-05-07T03:38:21;1.58;;;0.68;;
74974;SDS011;68459;50.836;19.138;2023-05-07T03:41:25;1.40;;;0.70;;
74974;SDS011;68459;50.836;19.138;2023-05-07T03:44:30;1.40;;;0.65;;
74974;SDS011;68459;50.836;19.138;2023-05-07T03:47:35;2.72;;;0.70;;
74974;SDS011;68459;50.836;19.138;2023-05-07T03:50:40;1.30;;;0.60;;
74974;SDS011;68459;50.836;19.138;2023-05-07T03:53:44;2.08;;;0.90;;
74974;SDS011;68459;50.836;19.138;2023-05-07T03:56:48;1.60;;;0.63;;
74974;SDS011;68459;50.836;19.138;2023-05-07T03:59:53;2.90;;;0.90;;
74974;SDS011;68459;50.836;19.138;2023-05-07T04:02:57;2.13;;;0.70;;
74974;SDS011;68459;50.836;19.138;2023-05-07T04:06:04;1.40;;;0.65;;
74974;SDS011;68459;50.836;19.138;2023-05-07T04:09:10;2.08;;;0.60;;
74974;SDS011;68459;50.836;19.138;2023-05-07T04:12:14;2.08;;;0.70;;
74974;SDS011;68459;50.836;19.138;2023-05-07T04:15:20;2.78;;;0.70;;
74974;SDS011;68459;50.836;19.138;2023-05-07T04:18:24;2.00;;;0.82;;
74974;SDS011;68459;50.836;19.138;2023-05-07T04:21:28;3.73;;;0.80;;
74974;SDS011;68459;50.836;19.138;2023-05-07T04:24:33;3.17;;;1.00;;
74974;SDS011;68459;50.836;19.138;2023-05-07T04:27:38;2.42;;;0.65;;
74974;SDS011;68459;50.836;19.138;2023-05-07T04:30:43;1.27;;;0.60;;
74974;SDS011;68459;50.836;19.138;2023-05-07T04:33:47;1.90;;;0.60;;
74974;SDS011;68459;50.836;19.138;2023-05-07T04:36:52;1.90;;;0.93;;
74974;SDS011;68459;50.836;19.138;2023-05-07T04:39:56;2.00;;;0.77;;
74974;SDS011;68459;50.836;19.138;2023-05-07T04:43:00;1.50;;;0.60;;
74974;SDS011;68459;50.836;19.138;2023-05-07T04:46:08;2.17;;;0.82;;
74974;SDS011;68459;50.836;19.138;2023-05-07T04:49:12;1.20;;;0.50;;
74974;SDS011;68459;50.836;19.138;2023-05-07T04:52:16;1.10;;;0.43;;
74974;SDS011;68459;50.836;19.138;2023-05-07T04:55:20;1.90;;;0.55;;
74974;SDS011;68459;50.836;19.138;2023-05-07T04:58:24;1.73;;;0.68;;
74974;SDS011;68459;50.836;19.138;2023-05-07T05:01:29;1.27;;;0.60;;
74974;SDS011;68459;50.836;19.138;2023-05-07T05:04:33;1.45;;;0.60;;
74974;SDS011;68459;50.836;19.138;2023-05-07T05:07:37;2.63;;;0.90;;
74974;SDS011;68459;50.836;19.138;2023-05-07T05:10:42;1.20;;;0.60;;
74974;SDS011;68459;50.836;19.138;2023-05-07T05:13:46;1.48;;;0.60;;
74974;SDS011;68459;50.836;19.138;2023-05-07T05:16:55;1.45;;;0.70;;
74974;SDS011;68459;50.836;19.138;2023-05-07T05:19:59;1.80;;;0.55;;
74974;SDS011;68459;50.836;19.138;2023-05-07T05:23:03;1.60;;;0.63;;
74974;SDS011;68459;50.836;19.138;2023-05-07T05:26:08;1.08;;;0.47;;
74974;SDS011;68459;50.836;19.138;2023-05-07T05:29:12;1.85;;;0.55;;
74974;SDS011;68459;50.836;19.138;2023-05-07T05:32:18;1.50;;;0.60;;
74974;SDS011;68459;50.836;19.138;2023-05-07T05:35:22;1.10;;;0.50;;
74974;SDS011;68459;50.836;19.138;2023-05-07T05:38:26;1.20;;;0.40;;
74974;SDS011;68459;50.836;19.138;2023-05-07T05:41:30;1.70;;;0.70;;
74974;SDS011;68459;50.836;19.138;2023-05-07T05:44:34;1.38;;;0.68;;
74974;SDS011;68459;50.836;19.138;2023-05-07T05:47:39;4.10;;;0.57;;
74974;SDS011;68459;50.836;19.138;2023-05-07T05:50:44;1.35;;;0.60;;
74974;SDS011;68459;50.836;19.138;2023-05-07T05:53:48;1.20;;;0.60;;
74974;SDS011;68459;50.836;19.138;2023-05-07T05:56:52;1.63;;;0.70;;
74974;SDS011;68459;50.836;19.138;2023-05-07T05:59:57;1.52;;;0.60;;
74974;SDS011;68459;50.836;19.138;2023-05-07T06:03:02;1.73;;;0.70;;
74974;SDS011;68459;50.836;19.138;2023-05-07T06:06:07;2.30;;;0.93;;
74974;SDS011;68459;50.836;19.138;2023-05-07T06:09:10;2.75;;;0.88;;
74974;SDS011;68459;50.836;19.138;2023-05-07T06:12:17;1.92;;;0.70;;
74974;SDS011;68459;50.836;19.138;2023-05-07T06:15:22;2.20;;;0.80;;
74974;SDS011;68459;50.836;19.138;2023-05-07T06:18:28;1.80;;;0.52;;
74974;SDS011;68459;50.836;19.138;2023-05-07T06:21:32;1.65;;;0.73;;
74974;SDS011;68459;50.836;19.138;2023-05-07T06:24:36;1.67;;;0.67;;
74974;SDS011;68459;50.836;19.138;2023-05-07T06:27:42;2.10;;;0.82;;
74974;SDS011;68459;50.836;19.138;2023-05-07T06:30:45;2.22;;;0.77;;
74974;SDS011;68459;50.836;19.138;2023-05-07T06:33:53;1.60;;;0.63;;
74974;SDS011;68459;50.836;19.138;2023-05-07T06:37:02;1.58;;;0.65;;
74974;SDS011;68459;50.836;19.138;2023-05-07T06:40:20;1.35;;;0.60;;
74974;SDS011;68459;50.836;19.138;2023-05-07T06:43:25;1.80;;;0.60;;
74974;SDS011;68459;50.836;19.138;2023-05-07T06:46:35;1.30;;;0.35;;
74974;SDS011;68459;50.836;19.138;2023-05-07T06:49:42;2.67;;;0.60;;
74974;SDS011;68459;50.836;19.138;2023-05-07T06:52:49;1.77;;;0.50;;
74974;SDS011;68459;50.836;19.138;2023-05-07T06:55:53;1.00;;;0.47;;
74974;SDS011;68459;50.836;19.138;2023-05-07T06:58:56;1.50;;;0.70;;
74974;SDS011;68459;50.836;19.138;2023-05-07T07:02:01;2.35;;;0.80;;
74974;SDS011;68459;50.836;19.138;2023-05-07T07:05:06;1.40;;;0.73;;
74974;SDS011;68459;50.836;19.138;2023-05-07T07:08:12;3.25;;;0.70;;
74974;SDS011;68459;50.836;19.138;2023-05-07T07:11:17;4.88;;;0.73;;
74974;SDS011;68459;50.836;19.138;2023-05-07T07:14:21;1.40;;;0.43;;
74974;SDS011;68459;50.836;19.138;2023-05-07T07:17:27;1.50;;;0.60;;
74974;SDS011;68459;50.836;19.138;2023-05-07T07:20:33;1.65;;;0.65;;
74974;SDS011;68459;50.836;19.138;2023-05-07T07:23:37;1.65;;;0.75;;
74974;SDS011;68459;50.836;19.138;2023-05-07T07:26:41;2.57;;;0.60;;
74974;SDS011;68459;50.836;19.138;2023-05-07T07:29:45;2.53;;;0.73;;
74974;SDS011;68459;50.836;19.138;2023-05-07T07:32:49;3.47;;;0.70;;
74974;SDS011;68459;50.836;19.138;2023-05-07T07:35:55;1.60;;;0.60;;
74974;SDS011;68459;50.836;19.138;2023-05-07T07:39:00;2.50;;;0.70;;
74974;SDS011;68459;50.836;19.138;2023-05-07T07:42:03;2.53;;;0.50;;
74974;SDS011;68459;50.836;19.138;2023-05-07T07:45:08;1.35;;;0.55;;
74974;SDS011;68459;50.836;19.138;2023-05-07T07:48:17;1.60;;;0.70;;
74974;SDS011;68459;50.836;19.138;2023-05-07T07:51:22;1.60;;;0.88;;
74974;SDS011;68459;50.836;19.138;2023-05-07T07:54:26;1.83;;;0.55;;
74974;SDS011;68459;50.836;19.138;2023-05-07T07:57:31;1.60;;;0.57;;
74974;SDS011;68459;50.836;19.138;2023-05-07T08:00:35;2.30;;;0.80;;
74974;SDS011;68459;50.836;19.138;2023-05-07T08:03:40;1.25;;;0.50;;
74974;SDS011;68459;50.836;19.138;2023-05-07T08:06:45;1.57;;;0.53;;
74974;SDS011;68459;50.836;19.138;2023-05-07T08:09:49;2.35;;;0.80;;
74974;SDS011;68459;50.836;19.138;2023-05-07T08:12:56;2.45;;;0.93;;
74974;SDS011;68459;50.836;19.138;2023-05-07T08:16:01;1.50;;;0.75;;
74974;SDS011;68459;50.836;19.138;2023-05-07T08:19:05;1.67;;;0.90;;
74974;SDS011;68459;50.836;19.138;2023-05-07T08:22:11;1.65;;;0.98;;
74974;SDS011;68459;50.836;19.138;2023-05-07T08:25:14;1.70;;;0.77;;
74974;SDS011;68459;50.836;19.138;2023-05-07T08:28:18;2.23;;;0.80;;
74974;SDS011;68459;50.836;19.138;2023-05-07T08:31:23;2.25;;;1.10;;
74974;SDS011;68459;50.836;19.138;2023-05-07T08:34:27;1.83;;;1.05;;
74974;SDS011;68459;50.836;19.138;2023-05-07T08:37:34;2.90;;;0.97;;
74974;SDS011;68459;50.836;19.138;2023-05-07T08:40:38;3.53;;;1.17;;
74974;SDS011;68459;50.836;19.138;2023-05-07T08:43:49;2.30;;;0.70;;
74974;SDS011;68459;50.836;19.138;2023-05-07T08:46:55;1.42;;;0.73;;
74974;SDS011;68459;50.836;19.138;2023-05-07T08:50:00;2.63;;;1.02;;
74974;SDS011;68459;50.836;19.138;2023-05-07T08:53:06;2.55;;;1.30;;
74974;SDS011;68459;50.836;19.138;2023-05-07T08:56:10;2.33;;;1.00;;
74974;SDS011;68459;50.836;19.138;2023-05-07T08:59:17;2.87;;;1.23;;
74974;SDS011;68459;50.836;19.138;2023-05-07T09:02:21;3.03;;;1.50;;
74974;SDS011;68459;50.836;19.138;2023-05-07T09:05:26;2.53;;;1.17;;
74974;SDS011;68459;50.836;19.138;2023-05-07T09:08:32;2.90;;;1.20;;
74974;SDS011;68459;50.836;19.138;2023-05-07T09:11:38;3.20;;;1.23;;
74974;SDS011;68459;50.836;19.138;2023-05-07T09:14:42;3.33;;;1.23;;
74974;SDS011;68459;50.836;19.138;2023-05-07T09:17:46;2.38;;;1.10;;
74974;SDS011;68459;50.836;19.138;2023-05-07T09:20:49;2.22;;;0.85;;
74974;SDS011;68459;50.836;19.138;2023-05-07T09:23:57;1.52;;;0.82;;
74974;SDS011;68459;50.836;19.138;2023-05-07T09:27:09;2.90;;;1.08;;
74974;SDS011;68459;50.836;19.138;2023-05-07T09:30:18;2.60;;;1.23;;
74974;SDS011;68459;50.836;19.138;2023-05-07T09:33:22;2.45;;;1.30;;
74974;SDS011;68459;50.836;19.138;2023-05-07T09:36:32;1.77;;;1.23;;
74974;SDS011;68459;50.836;19.138;2023-05-07T09:39:41;2.00;;;1.20;;
74974;SDS011;68459;50.836;19.138;2023-05-07T09:42:50;2.72;;;1.42;;
74974;SDS011;68459;50.836;19.138;2023-05-07T09:45:55;2.53;;;1.50;;
74974;SDS011;68459;50.836;19.138;2023-05-07T09:49:02;3.72;;;1.40;;
74974;SDS011;68459;50.836;19.138;2023-05-07T09:52:12;10.60;;;1.50;;
74974;SDS011;68459;50.836;19.138;2023-05-07T09:55:24;3.15;;;1.58;;
74974;SDS011;68459;50.836;19.138;2023-05-07T09:58:29;2.55;;;1.50;;
74974;SDS011;68459;50.836;19.138;2023-05-07T10:01:36;2.30;;;1.27;;
74974;SDS011;68459;50.836;19.138;2023-05-07T10:04:41;2.30;;;1.50;;
74974;SDS011;68459;50.836;19.138;2023-05-07T10:07:46;2.10;;;1.20;;
74974;SDS011;68459;50.836;19.138;2023-05-07T10:10:58;2.60;;;1.10;;
74974;SDS011;68459;50.836;19.138;2023-05-07T10:14:04;2.67;;;1.17;;
74974;SDS011;68459;50.836;19.138;2023-05-07T10:17:08;3.55;;;1.52;;
74974;SDS011;68459;50.836;19.138;2023-05-07T10:20:16;2.22;;;1.25;;
74974;SDS011;68459;50.836;19.138;2023-05-07T10:23:23;2.35;;;1.25;;
74974;SDS011;68459;50.836;19.138;2023-05-07T10:26:34;2.53;;;1.13;;
74974;SDS011;68459;50.836;19.138;2023-05-07T10:29:43;2.90;;;1.60;;
74974;SDS011;68459;50.836;19.138;2023-05-07T10:33:04;2.77;;;1.20;;
74974;SDS011;68459;50.836;19.138;2023-05-07T10:36:16;4.80;;;1.60;;
74974;SDS011;68459;50.836;19.138;2023-05-07T10:39:23;2.20;;;1.17;;
74974;SDS011;68459;50.836;19.138;2023-05-07T10:42:28;3.03;;;1.40;;
74974;SDS011;68459;50.836;19.138;2023-05-07T10:45:33;2.20;;;1.20;;
74974;SDS011;68459;50.836;19.138;2023-05-07T10:52:33;2.75;;;1.50;;
74974;SDS011;68459;50.836;19.138;2023-05-07T10:55:51;2.90;;;1.27;;
74974;SDS011;68459;50.836;19.138;2023-05-07T10:59:42;2.33;;;1.38;;
74974;SDS011;68459;50.836;19.138;2023-05-07T11:03:04;3.20;;;1.27;;
74974;SDS011;68459;50.836;19.138;2023-05-07T11:06:29;2.70;;;1.40;;
74974;SDS011;68459;50.836;19.138;2023-05-07T11:09:53;5.32;;;1.80;;
74974;SDS011;68459;50.836;19.138;2023-05-07T11:13:41;2.35;;;1.38;;
74974;SDS011;68459;50.836;19.138;2023-05-07T11:17:12;2.60;;;1.50;;
74974;SDS011;68459;50.836;19.138;2023-05-07T11:20:22;2.75;;;1.63;;
74974;SDS011;68459;50.836;19.138;2023-05-07T11:24:17;2.50;;;1.60;;
74974;SDS011;68459;50.836;19.138;2023-05-07T11:27:31;3.30;;;2.08;;
74974;SDS011;68459;50.836;19.138;2023-05-07T11:30:36;3.65;;;2.20;;
74974;SDS011;68459;50.836;19.138;2023-05-07T11:33:45;3.00;;;2.08;;
74974;SDS011;68459;50.836;19.138;2023-05-07T11:36:54;3.00;;;2.17;;
74974;SDS011;68459;50.836;19.138;2023-05-07T11:40:11;3.20;;;2.03;;
74974;SDS011;68459;50.836;19.138;2023-05-07T11:43:16;3.03;;;1.70;;
74974;SDS011;68459;50.836;19.138;2023-05-07T11:46:19;2.95;;;2.10;;
74974;SDS011;68459;50.836;19.138;2023-05-07T11:49:26;3.47;;;2.03;;
74974;SDS011;68459;50.836;19.138;2023-05-07T11:52:31;4.95;;;3.10;;
74974;SDS011;68459;50.836;19.138;2023-05-07T11:55:35;3.53;;;2.30;;
74974;SDS011;68459;50.836;19.138;2023-05-07T11:58:39;4.28;;;1.90;;
74974;SDS011;68459;50.836;19.138;2023-05-07T12:01:45;2.90;;;2.03;;
74974;SDS011;68459;50.836;19.138;2023-05-07T12:04:51;3.85;;;2.40;;
74974;SDS011;68459;50.836;19.138;2023-05-07T12:07:56;3.13;;;1.98;;
74974;SDS011;68459;50.836;19.138;2023-05-07T12:11:00;5.07;;;2.07;;
74974;SDS011;68459;50.836;19.138;2023-05-07T12:14:03;3.35;;;2.25;;
74974;SDS011;68459;50.836;19.138;2023-05-07T12:17:11;5.57;;;2.38;;
74974;SDS011;68459;50.836;19.138;2023-05-07T12:20:18;3.70;;;2.20;;
74974;SDS011;68459;50.836;19.138;2023-05-07T12:23:22;2.58;;;1.52;;
74974;SDS011;68459;50.836;19.138;2023-05-07T12:26:27;3.22;;;2.05;;
74974;SDS011;68459;50.836;19.138;2023-05-07T12:29:30;3.45;;;1.88;;
74974;SDS011;68459;50.836;19.138;2023-05-07T12:32:34;2.17;;;1.50;;
74974;SDS011;68459;50.836;19.138;2023-05-07T12:35:41;6.05;;;1.92;;
74974;SDS011;68459;50.836;19.138;2023-05-07T12:38:46;3.47;;;1.90;;
74974;SDS011;68459;50.836;19.138;2023-05-07T12:41:53;3.50;;;2.00;;
74974;SDS011;68459;50.836;19.138;2023-05-07T12:44:57;4.28;;;2.40;;
74974;SDS011;68459;50.836;19.138;2023-05-07T12:48:01;3.35;;;1.92;;
74974;SDS011;68459;50.836;19.138;2023-05-07T12:51:07;6.60;;;2.07;;
74974;SDS011;68459;50.836;19.138;2023-05-07T12:54:12;3.35;;;1.90;;
74974;SDS011;68459;50.836;19.138;2023-05-07T12:57:18;3.70;;;2.10;;
74974;SDS011;68459;50.836;19.138;2023-05-07T13:00:33;2.75;;;1.63;;
74974;SDS011;68459;50.836;19.138;2023-05-07T13:03:38;4.90;;;2.00;;
74974;SDS011;68459;50.836;19.138;2023-05-07T13:06:44;2.72;;;1.70;;
74974;SDS011;68459;50.836;19.138;2023-05-07T13:09:47;4.43;;;2.05;;
74974;SDS011;68459;50.836;19.138;2023-05-07T13:12:51;2.77;;;1.60;;
74974;SDS011;68459;50.836;19.138;2023-05-07T13:15:55;4.20;;;1.73;;
74974;SDS011;68459;50.836;19.138;2023-05-07T13:18:59;3.90;;;1.83;;
74974;SDS011;68459;50.836;19.138;2023-05-07T13:22:04;3.17;;;1.83;;
74974;SDS011;68459;50.836;19.138;2023-05-07T13:25:08;3.30;;;2.50;;
74974;SDS011;68459;50.836;19.138;2023-05-07T13:28:12;4.05;;;2.17;;
74974;SDS011;68459;50.836;19.138;2023-05-07T13:31:16;3.45;;;2.30;;
74974;SDS011;68459;50.836;19.138;2023-05-07T13:34:20;4.57;;;2.60;;
74974;SDS011;68459;50.836;19.138;2023-05-07T13:37:25;3.78;;;2.42;;
74974;SDS011;68459;50.836;19.138;2023-05-07T13:40:29;3.50;;;2.38;;
74974;SDS011;68459;50.836;19.138;2023-05-07T13:43:33;3.97;;;2.03;;
74974;SDS011;68459;50.836;19.138;2023-05-07T13:46:36;4.05;;;2.60;;
74974;SDS011;68459;50.836;19.138;2023-05-07T13:49:40;3.83;;;2.30;;
74974;SDS011;68459;50.836;19.138;2023-05-07T13:52:45;3.47;;;2.40;;
74974;SDS011;68459;50.836;19.138;2023-05-07T13:55:52;3.75;;;2.33;;
74974;SDS011;68459;50.836;19.138;2023-05-07T13:58:56;5.65;;;2.72;;
74974;SDS011;68459;50.836;19.138;2023-05-07T14:02:02;5.30;;;2.92;;
74974;SDS011;68459;50.836;19.138;2023-05-07T14:05:06;3.60;;;2.50;;
74974;SDS011;68459;50.836;19.138;2023-05-07T14:08:12;6.03;;;2.63;;
74974;SDS011;68459;50.836;19.138;2023-05-07T14:11:16;5.07;;;2.67;;
74974;SDS011;68459;50.836;19.138;2023-05-07T14:14:20;4.67;;;2.63;;
74974;SDS011;68459;50.836;19.138;2023-05-07T14:17:23;4.55;;;2.70;;
74974;SDS011;68459;50.836;19.138;2023-05-07T14:20:28;4.47;;;2.50;;
74974;SDS011;68459;50.836;19.138;2023-05-07T14:23:34;4.07;;;2.60;;
74974;SDS011;68459;50.836;19.138;2023-05-07T14:26:38;3.55;;;2.42;;
74974;SDS011;68459;50.836;19.138;2023-05-07T14:29:41;3.80;;;2.40;;
74974;SDS011;68459;50.836;19.138;2023-05-07T14:32:47;4.05;;;2.17;;
74974;SDS011;68459;50.836;19.138;2023-05-07T14:35:51;3.65;;;2.35;;
74974;SDS011;68459;50.836;19.138;2023-05-07T14:38:56;9.80;;;4.97;;
74974;SDS011;68459;50.836;19.138;2023-05-07T14:42:01;4.55;;;2.50;;
74974;SDS011;68459;50.836;19.138;2023-05-07T14:45:05;6.63;;;3.77;;
74974;SDS011;68459;50.836;19.138;2023-05-07T14:48:10;5.90;;;2.78;;
74974;SDS011;68459;50.836;19.138;2023-05-07T14:51:17;4.40;;;2.70;;
74974;SDS011;68459;50.836;19.138;2023-05-07T14:54:22;4.03;;;2.30;;
74974;SDS011;68459;50.836;19.138;2023-05-07T14:57:26;3.45;;;1.80;;
74974;SDS011;68459;50.836;19.138;2023-05-07T15:00:33;4.13;;;2.63;;
74974;SDS011;68459;50.836;19.138;2023-05-07T15:03:37;4.55;;;2.33;;
74974;SDS011;68459;50.836;19.138;2023-05-07T15:06:42;3.65;;;2.33;;
74974;SDS011;68459;50.836;19.138;2023-05-07T15:09:47;3.50;;;2.20;;
74974;SDS011;68459;50.836;19.138;2023-05-07T15:12:52;3.78;;;2.08;;
74974;SDS011;68459;50.836;19.138;2023-05-07T15:15:55;3.90;;;2.13;;
74974;SDS011;68459;50.836;19.138;2023-05-07T15:18:59;5.57;;;3.00;;
74974;SDS011;68459;50.836;19.138;2023-05-07T15:22:03;5.43;;;2.50;;
74974;SDS011;68459;50.836;19.138;2023-05-07T15:25:09;5.87;;;2.53;;
74974;SDS011;68459;50.836;19.138;2023-05-07T15:28:13;3.85;;;2.20;;
74974;SDS011;68459;50.836;19.138;2023-05-07T15:31:17;4.80;;;2.50;;
74974;SDS011;68459;50.836;19.138;2023-05-07T15:34:21;5.25;;;2.40;;
74974;SDS011;68459;50.836;19.138;2023-05-07T15:37:25;4.15;;;2.15;;
74974;SDS011;68459;50.836;19.138;2023-05-07T15:40:30;4.68;;;2.60;;
74974;SDS011;68459;50.836;19.138;2023-05-07T15:43:38;3.47;;;2.30;;
74974;SDS011;68459;50.836;19.138;2023-05-07T15:46:49;3.77;;;2.23;;
74974;SDS011;68459;50.836;19.138;2023-05-07T15:49:52;4.45;;;2.38;;
74974;SDS011;68459;50.836;19.138;2023-05-07T15:52:56;4.07;;;2.50;;
74974;SDS011;68459;50.836;19.138;2023-05-07T15:56:01;4.30;;;2.50;;
74974;SDS011;68459;50.836;19.138;2023-05-07T15:59:05;5.35;;;2.60;;
74974;SDS011;68459;50.836;19.138;2023-05-07T16:02:08;4.03;;;2.42;;
74974;SDS011;68459;50.836;19.138;2023-05-07T16:05:12;5.05;;;2.58;;
74974;SDS011;68459;50.836;19.138;2023-05-07T16:08:16;3.92;;;1.98;;
74974;SDS011;68459;50.836;19.138;2023-05-07T16:11:21;6.65;;;2.42;;
74974;SDS011;68459;50.836;19.138;2023-05-07T16:14:25;5.32;;;2.03;;
74974;SDS011;68459;50.836;19.138;2023-05-07T16:17:28;2.90;;;1.80;;
74974;SDS011;68459;50.836;19.138;2023-05-07T16:20:32;4.90;;;2.30;;
74974;SDS011;68459;50.836;19.138;2023-05-07T16:23:36;4.15;;;2.40;;
74974;SDS011;68459;50.836;19.138;2023-05-07T16:26:41;4.33;;;2.37;;
74974;SDS011;68459;50.836;19.138;2023-05-07T16:29:45;4.22;;;2.20;;
74974;SDS011;68459;50.836;19.138;2023-05-07T16:32:49;3.55;;;1.95;;
74974;SDS011;68459;50.836;19.138;2023-05-07T16:35:52;4.65;;;2.50;;
74974;SDS011;68459;50.836;19.138;2023-05-07T16:38:56;6.32;;;2.55;;
74974;SDS011;68459;50.836;19.138;2023-05-07T16:42:01;4.78;;;2.60;;
74974;SDS011;68459;50.836;19.138;2023-05-07T16:45:05;7.32;;;2.97;;
74974;SDS011;68459;50.836;19.138;2023-05-07T16:48:10;5.47;;;2.90;;
74974;SDS011;68459;50.836;19.138;2023-05-07T16:51:14;6.30;;;2.65;;
74974;SDS011;68459;50.836;19.138;2023-05-07T16:54:18;5.28;;;2.40;;
74974;SDS011;68459;50.836;19.138;2023-05-07T16:57:23;4.90;;;2.50;;
74974;SDS011;68459;50.836;19.138;2023-05-07T17:00:27;7.25;;;2.50;;
74974;SDS011;68459;50.836;19.138;2023-05-07T17:03:49;5.60;;;2.70;;
74974;SDS011;68459;50.836;19.138;2023-05-07T17:06:54;9.00;;;2.70;;
74974;SDS011;68459;50.836;19.138;2023-05-07T17:09:58;5.90;;;2.85;;
74974;SDS011;68459;50.836;19.138;2023-05-07T17:13:03;7.82;;;2.92;;
74974;SDS011;68459;50.836;19.138;2023-05-07T17:16:07;5.55;;;2.70;;
74974;SDS011;68459;50.836;19.138;2023-05-07T17:19:11;7.43;;;3.30;;
74974;SDS011;68459;50.836;19.138;2023-05-07T17:22:14;10.02;;;3.50;;
74974;SDS011;68459;50.836;19.138;2023-05-07T17:25:18;7.95;;;3.83;;
74974;SDS011;68459;50.836;19.138;2023-05-07T17:28:25;4.60;;;2.63;;
74974;SDS011;68459;50.836;19.138;2023-05-07T17:31:29;5.07;;;2.60;;
74974;SDS011;68459;50.836;19.138;2023-05-07T17:34:32;5.10;;;2.30;;
74974;SDS011;68459;50.836;19.138;2023-05-07T17:37:36;6.25;;;2.75;;
74974;SDS011;68459;50.836;19.138;2023-05-07T17:40:40;4.55;;;2.50;;
74974;SDS011;68459;50.836;19.138;2023-05-07T17:43:45;8.10;;;2.55;;
74974;SDS011;68459;50.836;19.138;2023-05-07T17:46:49;5.50;;;2.85;;
74974;SDS011;68459;50.836;19.138;2023-05-07T17:49:53;5.07;;;2.73;;
74974;SDS011;68459;50.836;19.138;2023-05-07T17:52:56;4.93;;;2.42;;
74974;SDS011;68459;50.836;19.138;2023-05-07T17:56:00;5.15;;;2.58;;
74974;SDS011;68459;50.836;19.138;2023-05-07T17:59:05;3.93;;;2.43;;
74974;SDS011;68459;50.836;19.138;2023-05-07T18:02:09;5.47;;;2.45;;
74974;SDS011;68459;50.836;19.138;2023-05-07T18:05:12;3.70;;;2.05;;
74974;SDS011;68459;50.836;19.138;2023-05-07T18:08:16;3.35;;;2.00;;
74974;SDS011;68459;50.836;19.138;2023-05-07T18:11:20;3.15;;;2.10;;
74974;SDS011;68459;50.836;19.138;2023-05-07T18:14:26;5.07;;;1.92;;
74974;SDS011;68459;50.836;19.138;2023-05-07T18:17:30;3.85;;;1.88;;
74974;SDS011;68459;50.836;19.138;2023-05-07T18:20:34;3.17;;;2.00;;
74974;SDS011;68459;50.836;19.138;2023-05-07T18:23:38;3.72;;;2.22;;
74974;SDS011;68459;50.836;19.138;2023-05-07T18:26:41;4.47;;;2.10;;